sensor_id;sensor_type;location;lat;lon;timestamp;P1;durP1;ratioP1;P2;durP2;ratioP2
64550;SDS011;50945;44.472;-123.352;2023-04-24T00:00:43;6.65;;;2.40;;
64550;SDS011;50945;44.472;-123.352;2023-04-24T00:03:11;6.20;;;2.83;;
64550;SDS011;50945;44.472;-123.352;2023-04-24T00:05:38;7.55;;;2.53;;
64550;SDS011;50945;44.472;-123.352;2023-04-24T00:08:05;11.63;;;2.70;;
64550;SDS011;50945;44.472;-123.352;2023-04-24T00:10:31;7.45;;;2.50;;
64550;SDS011;50945;44.472;-123.352;2023-04-24T00:12:59;9.55;;;2.47;;
64550;SDS011;50945;44.472;-123.352;2023-04-24T00:15:31;4.65;;;3.05;;
64550;SDS011;50945;44.472;-123.352;2023-04-24T00:17:59;4.28;;;2.63;;
64550;SDS011;50945;44.472;-123.352;2023-04-24T00:20:28;7.82;;;2.05;;
64550;SDS011;50945;44.472;-123.352;2023-04-24T00:22:57;10.65;;;2.95;;
64550;SDS011;50945;44.472;-123.352;2023-04-24T00:25:24;10.02;;;2.97;;
64550;SDS011;50945;44.472;-123.352;2023-04-24T00:27:50;6.88;;;3.00;;
64550;SDS011;50945;44.472;-123.352;2023-04-24T00:30:16;10.60;;;2.65;;
64550;SDS011;50945;44.472;-123.352;2023-04-24T00:32:43;8.68;;;2.90;;
64550;SDS011;50945;44.472;-123.352;2023-04-24T00:35:09;6.90;;;2.50;;
64550;SDS011;50945;44.472;-123.352;2023-04-24T00:37:35;11.40;;;3.08;;
64550;SDS011;50945;44.472;-123.352;2023-04-24T00:40:02;9.10;;;3.20;;
64550;SDS011;50945;44.472;-123.352;2023-04-24T00:42:28;12.05;;;3.53;;
64550;SDS011;50945;44.472;-123.352;2023-04-24T00:44:56;8.35;;;3.13;;
64550;SDS011;50945;44.472;-123.352;2023-04-24T00:47:24;6.18;;;2.85;;
64550;SDS011;50945;44.472;-123.352;2023-04-24T00:49:51;10.20;;;3.28;;
64550;SDS011;50945;44.472;-123.352;2023-04-24T00:52:19;10.25;;;3.60;;
64550;SDS011;50945;44.472;-123.352;2023-04-24T00:54:45;4.78;;;2.30;;
64550;SDS011;50945;44.472;-123.352;2023-04-24T00:57:12;13.02;;;3.22;;
64550;SDS011;50945;44.472;-123.352;2023-04-24T00:59:41;11.10;;;3.47;;
64550;SDS011;50945;44.472;-123.352;2023-04-24T01:02:09;9.07;;;3.60;;
64550;SDS011;50945;44.472;-123.352;2023-04-24T01:04:36;7.15;;;3.30;;
64550;SDS011;50945;44.472;-123.352;2023-04-24T01:07:03;10.65;;;2.70;;
64550;SDS011;50945;44.472;-123.352;2023-04-24T01:09:37;7.40;;;2.83;;
64550;SDS011;50945;44.472;-123.352;2023-04-24T01:12:07;12.15;;;3.47;;
64550;SDS011;50945;44.472;-123.352;2023-04-24T01:14:33;7.28;;;3.30;;
64550;SDS011;50945;44.472;-123.352;2023-04-24T01:16:59;9.63;;;3.55;;
64550;SDS011;50945;44.472;-123.352;2023-04-24T01:19:28;8.63;;;3.25;;
64550;SDS011;50945;44.472;-123.352;2023-04-24T01:21:56;8.70;;;3.42;;
64550;SDS011;50945;44.472;-123.352;2023-04-24T01:24:24;9.25;;;3.53;;
64550;SDS011;50945;44.472;-123.352;2023-04-24T01:26:50;10.85;;;3.33;;
64550;SDS011;50945;44.472;-123.352;2023-04-24T01:29:17;10.50;;;2.88;;
64550;SDS011;50945;44.472;-123.352;2023-04-24T01:31:43;9.13;;;3.65;;
64550;SDS011;50945;44.472;-123.352;2023-04-24T01:34:10;10.38;;;3.25;;
64550;SDS011;50945;44.472;-123.352;2023-04-24T01:36:39;8.95;;;2.90;;
64550;SDS011;50945;44.472;-123.352;2023-04-24T01:39:07;8.52;;;2.70;;
64550;SDS011;50945;44.472;-123.352;2023-04-24T01:41:34;14.55;;;3.10;;
64550;SDS011;50945;44.472;-123.352;2023-04-24T01:44:01;8.40;;;3.00;;
64550;SDS011;50945;44.472;-123.352;2023-04-24T01:46:27;10.55;;;3.20;;
64550;SDS011;50945;44.472;-123.352;2023-04-24T01:48:54;10.05;;;3.33;;
64550;SDS011;50945;44.472;-123.352;2023-04-24T01:51:21;11.27;;;3.40;;
64550;SDS011;50945;44.472;-123.352;2023-04-24T01:53:48;10.68;;;3.00;;
64550;SDS011;50945;44.472;-123.352;2023-04-24T01:56:14;6.30;;;2.70;;
64550;SDS011;50945;44.472;-123.352;2023-04-24T01:58:43;6.18;;;2.80;;
64550;SDS011;50945;44.472;-123.352;2023-04-24T02:03:40;3.63;;;2.83;;
64550;SDS011;50945;44.472;-123.352;2023-04-24T02:06:06;11.70;;;3.65;;
64550;SDS011;50945;44.472;-123.352;2023-04-24T02:08:33;9.70;;;3.28;;
64550;SDS011;50945;44.472;-123.352;2023-04-24T02:10:59;9.38;;;3.28;;
64550;SDS011;50945;44.472;-123.352;2023-04-24T02:13:27;8.00;;;3.50;;
64550;SDS011;50945;44.472;-123.352;2023-04-24T02:15:53;10.52;;;2.92;;
64550;SDS011;50945;44.472;-123.352;2023-04-24T02:18:20;9.18;;;3.10;;
64550;SDS011;50945;44.472;-123.352;2023-04-24T02:20:47;10.15;;;3.20;;
64550;SDS011;50945;44.472;-123.352;2023-04-24T02:23:14;11.15;;;2.85;;
64550;SDS011;50945;44.472;-123.352;2023-04-24T02:25:40;9.98;;;3.10;;
64550;SDS011;50945;44.472;-123.352;2023-04-24T02:28:07;11.45;;;3.08;;
64550;SDS011;50945;44.472;-123.352;2023-04-24T02:30:33;6.70;;;2.92;;
64550;SDS011;50945;44.472;-123.352;2023-04-24T02:32:59;6.43;;;3.50;;
64550;SDS011;50945;44.472;-123.352;2023-04-24T02:35:25;7.22;;;3.08;;
64550;SDS011;50945;44.472;-123.352;2023-04-24T02:37:52;10.73;;;3.20;;
64550;SDS011;50945;44.472;-123.352;2023-04-24T02:40:18;10.25;;;3.15;;
64550;SDS011;50945;44.472;-123.352;2023-04-24T02:42:44;11.75;;;3.30;;
64550;SDS011;50945;44.472;-123.352;2023-04-24T02:45:10;8.70;;;3.20;;
64550;SDS011;50945;44.472;-123.352;2023-04-24T02:47:39;11.85;;;3.78;;
64550;SDS011;50945;44.472;-123.352;2023-04-24T02:50:06;10.25;;;3.47;;
64550;SDS011;50945;44.472;-123.352;2023-04-24T02:54:58;5.47;;;2.83;;
64550;SDS011;50945;44.472;-123.352;2023-04-24T02:57:25;5.97;;;2.95;;
64550;SDS011;50945;44.472;-123.352;2023-04-24T02:59:53;4.78;;;2.67;;
64550;SDS011;50945;44.472;-123.352;2023-04-24T03:02:19;6.80;;;3.50;;
64550;SDS011;50945;44.472;-123.352;2023-04-24T03:04:46;8.75;;;3.17;;
64550;SDS011;50945;44.472;-123.352;2023-04-24T03:07:13;7.53;;;2.45;;
64550;SDS011;50945;44.472;-123.352;2023-04-24T03:09:40;8.40;;;2.67;;
64550;SDS011;50945;44.472;-123.352;2023-04-24T03:12:06;12.70;;;3.33;;
64550;SDS011;50945;44.472;-123.352;2023-04-24T03:14:34;4.32;;;2.45;;
64550;SDS011;50945;44.472;-123.352;2023-04-24T03:17:00;6.90;;;2.42;;
64550;SDS011;50945;44.472;-123.352;2023-04-24T03:19:27;10.23;;;3.05;;
64550;SDS011;50945;44.472;-123.352;2023-04-24T03:21:53;6.80;;;2.90;;
64550;SDS011;50945;44.472;-123.352;2023-04-24T03:24:20;10.43;;;3.17;;
64550;SDS011;50945;44.472;-123.352;2023-04-24T03:26:46;12.90;;;3.20;;
64550;SDS011;50945;44.472;-123.352;2023-04-24T03:29:13;5.47;;;2.70;;
64550;SDS011;50945;44.472;-123.352;2023-04-24T03:31:40;8.93;;;3.33;;
64550;SDS011;50945;44.472;-123.352;2023-04-24T03:34:06;6.25;;;2.47;;
64550;SDS011;50945;44.472;-123.352;2023-04-24T03:36:32;4.70;;;2.78;;
64550;SDS011;50945;44.472;-123.352;2023-04-24T03:38:58;8.10;;;2.85;;
64550;SDS011;50945;44.472;-123.352;2023-04-24T03:41:25;4.65;;;2.83;;
64550;SDS011;50945;44.472;-123.352;2023-04-24T03:43:51;3.75;;;1.98;;
64550;SDS011;50945;44.472;-123.352;2023-04-24T03:46:17;4.07;;;2.08;;
64550;SDS011;50945;44.472;-123.352;2023-04-24T03:48:46;3.28;;;2.25;;
64550;SDS011;50945;44.472;-123.352;2023-04-24T03:51:13;5.55;;;2.28;;
64550;SDS011;50945;44.472;-123.352;2023-04-24T03:53:39;6.25;;;2.63;;
64550;SDS011;50945;44.472;-123.352;2023-04-24T03:56:08;7.32;;;2.38;;
64550;SDS011;50945;44.472;-123.352;2023-04-24T03:58:34;11.77;;;2.65;;
64550;SDS011;50945;44.472;-123.352;2023-04-24T04:01:02;10.07;;;2.90;;
64550;SDS011;50945;44.472;-123.352;2023-04-24T04:03:29;7.95;;;2.72;;
64550;SDS011;50945;44.472;-123.352;2023-04-24T04:05:56;5.78;;;2.30;;
64550;SDS011;50945;44.472;-123.352;2023-04-24T04:08:25;5.03;;;2.47;;
64550;SDS011;50945;44.472;-123.352;2023-04-24T04:10:51;6.28;;;3.05;;
64550;SDS011;50945;44.472;-123.352;2023-04-24T04:13:17;9.82;;;2.95;;
64550;SDS011;50945;44.472;-123.352;2023-04-24T04:15:45;6.00;;;2.47;;
64550;SDS011;50945;44.472;-123.352;2023-04-24T04:18:11;6.70;;;2.63;;
64550;SDS011;50945;44.472;-123.352;2023-04-24T04:20:37;9.75;;;2.33;;
64550;SDS011;50945;44.472;-123.352;2023-04-24T04:23:04;7.25;;;3.20;;
64550;SDS011;50945;44.472;-123.352;2023-04-24T04:25:30;4.63;;;2.08;;
64550;SDS011;50945;44.472;-123.352;2023-04-24T04:27:58;5.68;;;2.58;;
64550;SDS011;50945;44.472;-123.352;2023-04-24T04:30:24;4.20;;;2.20;;
64550;SDS011;50945;44.472;-123.352;2023-04-24T04:32:51;4.68;;;2.10;;
64550;SDS011;50945;44.472;-123.352;2023-04-24T04:35:17;5.07;;;2.30;;
64550;SDS011;50945;44.472;-123.352;2023-04-24T04:37:43;2.95;;;2.00;;
64550;SDS011;50945;44.472;-123.352;2023-04-24T04:40:11;4.10;;;2.58;;
64550;SDS011;50945;44.472;-123.352;2023-04-24T04:42:37;4.88;;;2.13;;
64550;SDS011;50945;44.472;-123.352;2023-04-24T04:45:08;6.93;;;2.50;;
64550;SDS011;50945;44.472;-123.352;2023-04-24T04:47:37;7.68;;;2.38;;
64550;SDS011;50945;44.472;-123.352;2023-04-24T04:52:31;4.38;;;2.15;;
64550;SDS011;50945;44.472;-123.352;2023-04-24T04:54:57;6.53;;;2.35;;
64550;SDS011;50945;44.472;-123.352;2023-04-24T04:57:23;8.68;;;3.42;;
64550;SDS011;50945;44.472;-123.352;2023-04-24T04:59:50;8.60;;;2.83;;
64550;SDS011;50945;44.472;-123.352;2023-04-24T05:02:16;5.40;;;2.83;;
64550;SDS011;50945;44.472;-123.352;2023-04-24T05:04:43;4.25;;;2.42;;
64550;SDS011;50945;44.472;-123.352;2023-04-24T05:07:10;5.13;;;2.50;;
64550;SDS011;50945;44.472;-123.352;2023-04-24T05:09:37;5.85;;;2.67;;
64550;SDS011;50945;44.472;-123.352;2023-04-24T05:12:07;8.65;;;3.10;;
64550;SDS011;50945;44.472;-123.352;2023-04-24T05:14:34;5.72;;;2.72;;
64550;SDS011;50945;44.472;-123.352;2023-04-24T05:17:00;8.30;;;4.07;;
64550;SDS011;50945;44.472;-123.352;2023-04-24T05:19:27;7.88;;;3.70;;
64550;SDS011;50945;44.472;-123.352;2023-04-24T05:21:54;7.15;;;2.85;;
64550;SDS011;50945;44.472;-123.352;2023-04-24T05:24:24;6.03;;;2.60;;
64550;SDS011;50945;44.472;-123.352;2023-04-24T05:26:51;6.28;;;2.60;;
64550;SDS011;50945;44.472;-123.352;2023-04-24T05:29:20;4.70;;;2.42;;
64550;SDS011;50945;44.472;-123.352;2023-04-24T05:31:46;7.80;;;2.63;;
64550;SDS011;50945;44.472;-123.352;2023-04-24T05:34:21;4.70;;;2.70;;
64550;SDS011;50945;44.472;-123.352;2023-04-24T05:36:47;4.78;;;2.72;;
64550;SDS011;50945;44.472;-123.352;2023-04-24T05:39:14;5.35;;;2.20;;
64550;SDS011;50945;44.472;-123.352;2023-04-24T05:41:40;9.32;;;2.75;;
64550;SDS011;50945;44.472;-123.352;2023-04-24T05:44:07;4.72;;;2.20;;
64550;SDS011;50945;44.472;-123.352;2023-04-24T05:46:33;6.93;;;1.90;;
64550;SDS011;50945;44.472;-123.352;2023-04-24T05:49:00;7.50;;;2.38;;
64550;SDS011;50945;44.472;-123.352;2023-04-24T05:51:27;4.07;;;1.92;;
64550;SDS011;50945;44.472;-123.352;2023-04-24T05:53:54;3.42;;;2.00;;
64550;SDS011;50945;44.472;-123.352;2023-04-24T05:56:20;4.82;;;2.08;;
64550;SDS011;50945;44.472;-123.352;2023-04-24T05:58:46;4.97;;;1.88;;
64550;SDS011;50945;44.472;-123.352;2023-04-24T06:01:13;4.32;;;1.98;;
64550;SDS011;50945;44.472;-123.352;2023-04-24T06:03:40;3.03;;;1.95;;
64550;SDS011;50945;44.472;-123.352;2023-04-24T06:06:07;3.97;;;2.15;;
64550;SDS011;50945;44.472;-123.352;2023-04-24T06:08:34;2.13;;;1.85;;
64550;SDS011;50945;44.472;-123.352;2023-04-24T06:13:27;3.95;;;1.80;;
64550;SDS011;50945;44.472;-123.352;2023-04-24T06:15:53;6.10;;;3.03;;
64550;SDS011;50945;44.472;-123.352;2023-04-24T06:18:19;4.53;;;2.20;;
64550;SDS011;50945;44.472;-123.352;2023-04-24T06:20:46;4.35;;;2.00;;
64550;SDS011;50945;44.472;-123.352;2023-04-24T06:25:38;3.90;;;2.03;;
64550;SDS011;50945;44.472;-123.352;2023-04-24T06:28:04;2.67;;;1.75;;
64550;SDS011;50945;44.472;-123.352;2023-04-24T06:30:31;4.65;;;1.95;;
64550;SDS011;50945;44.472;-123.352;2023-04-24T06:32:57;7.10;;;2.22;;
64550;SDS011;50945;44.472;-123.352;2023-04-24T06:35:23;2.25;;;2.03;;
64550;SDS011;50945;44.472;-123.352;2023-04-24T06:37:49;4.43;;;1.95;;
64550;SDS011;50945;44.472;-123.352;2023-04-24T06:40:16;2.70;;;1.95;;
64550;SDS011;50945;44.472;-123.352;2023-04-24T06:42:44;3.20;;;2.42;;
64550;SDS011;50945;44.472;-123.352;2023-04-24T06:45:10;2.67;;;1.73;;
64550;SDS011;50945;44.472;-123.352;2023-04-24T06:47:36;4.88;;;1.92;;
64550;SDS011;50945;44.472;-123.352;2023-04-24T06:50:03;2.92;;;1.75;;
64550;SDS011;50945;44.472;-123.352;2023-04-24T06:52:30;3.03;;;1.67;;
64550;SDS011;50945;44.472;-123.352;2023-04-24T06:55:04;3.70;;;2.58;;
64550;SDS011;50945;44.472;-123.352;2023-04-24T06:57:31;2.97;;;1.88;;
64550;SDS011;50945;44.472;-123.352;2023-04-24T06:59:57;3.33;;;2.47;;
64550;SDS011;50945;44.472;-123.352;2023-04-24T07:02:24;2.85;;;1.80;;
64550;SDS011;50945;44.472;-123.352;2023-04-24T07:04:52;4.00;;;2.10;;
64550;SDS011;50945;44.472;-123.352;2023-04-24T07:07:19;3.63;;;1.98;;
64550;SDS011;50945;44.472;-123.352;2023-04-24T07:09:46;1.92;;;1.63;;
64550;SDS011;50945;44.472;-123.352;2023-04-24T07:12:12;2.88;;;1.75;;
64550;SDS011;50945;44.472;-123.352;2023-04-24T07:14:39;3.53;;;1.52;;
64550;SDS011;50945;44.472;-123.352;2023-04-24T07:17:06;1.63;;;1.52;;
64550;SDS011;50945;44.472;-123.352;2023-04-24T07:19:33;2.42;;;1.70;;
64550;SDS011;50945;44.472;-123.352;2023-04-24T07:22:01;3.03;;;1.70;;
64550;SDS011;50945;44.472;-123.352;2023-04-24T07:24:28;3.50;;;1.50;;
64550;SDS011;50945;44.472;-123.352;2023-04-24T07:26:57;1.65;;;1.55;;
64550;SDS011;50945;44.472;-123.352;2023-04-24T07:29:23;2.42;;;1.88;;
64550;SDS011;50945;44.472;-123.352;2023-04-24T07:31:51;1.90;;;1.45;;
64550;SDS011;50945;44.472;-123.352;2023-04-24T07:34:19;3.22;;;1.85;;
64550;SDS011;50945;44.472;-123.352;2023-04-24T07:36:45;2.58;;;1.65;;
64550;SDS011;50945;44.472;-123.352;2023-04-24T07:39:12;2.50;;;1.30;;
64550;SDS011;50945;44.472;-123.352;2023-04-24T07:41:38;2.08;;;1.30;;
64550;SDS011;50945;44.472;-123.352;2023-04-24T07:44:04;3.05;;;2.05;;
64550;SDS011;50945;44.472;-123.352;2023-04-24T07:46:31;3.38;;;1.38;;
64550;SDS011;50945;44.472;-123.352;2023-04-24T07:48:57;5.20;;;1.70;;
64550;SDS011;50945;44.472;-123.352;2023-04-24T07:51:25;3.20;;;1.80;;
64550;SDS011;50945;44.472;-123.352;2023-04-24T07:53:54;2.25;;;1.27;;
64550;SDS011;50945;44.472;-123.352;2023-04-24T07:56:20;3.05;;;1.90;;
64550;SDS011;50945;44.472;-123.352;2023-04-24T07:58:46;2.25;;;1.60;;
64550;SDS011;50945;44.472;-123.352;2023-04-24T08:01:13;1.67;;;1.58;;
64550;SDS011;50945;44.472;-123.352;2023-04-24T08:03:39;1.50;;;1.40;;
64550;SDS011;50945;44.472;-123.352;2023-04-24T08:06:06;1.50;;;1.40;;
64550;SDS011;50945;44.472;-123.352;2023-04-24T08:08:33;1.13;;;1.08;;
64550;SDS011;50945;44.472;-123.352;2023-04-24T08:10:59;3.90;;;1.30;;
64550;SDS011;50945;44.472;-123.352;2023-04-24T08:13:25;4.22;;;1.20;;
64550;SDS011;50945;44.472;-123.352;2023-04-24T08:15:51;1.60;;;1.50;;
64550;SDS011;50945;44.472;-123.352;2023-04-24T08:18:17;3.13;;;1.50;;
64550;SDS011;50945;44.472;-123.352;2023-04-24T08:20:43;3.60;;;1.45;;
64550;SDS011;50945;44.472;-123.352;2023-04-24T08:23:10;1.48;;;1.33;;
64550;SDS011;50945;44.472;-123.352;2023-04-24T08:25:36;1.45;;;1.20;;
64550;SDS011;50945;44.472;-123.352;2023-04-24T08:28:03;1.38;;;1.27;;
64550;SDS011;50945;44.472;-123.352;2023-04-24T08:30:31;1.38;;;0.95;;
64550;SDS011;50945;44.472;-123.352;2023-04-24T08:32:57;1.35;;;1.00;;
64550;SDS011;50945;44.472;-123.352;2023-04-24T08:35:23;1.00;;;0.90;;
64550;SDS011;50945;44.472;-123.352;2023-04-24T08:37:50;2.33;;;1.30;;
64550;SDS011;50945;44.472;-123.352;2023-04-24T08:40:17;5.00;;;1.88;;
64550;SDS011;50945;44.472;-123.352;2023-04-24T08:42:47;4.68;;;1.55;;
64550;SDS011;50945;44.472;-123.352;2023-04-24T08:45:15;4.03;;;1.63;;
64550;SDS011;50945;44.472;-123.352;2023-04-24T08:47:42;1.80;;;1.70;;
64550;SDS011;50945;44.472;-123.352;2023-04-24T08:50:09;3.15;;;1.50;;
64550;SDS011;50945;44.472;-123.352;2023-04-24T08:52:36;1.92;;;1.30;;
64550;SDS011;50945;44.472;-123.352;2023-04-24T08:55:02;1.13;;;0.70;;
64550;SDS011;50945;44.472;-123.352;2023-04-24T08:57:29;0.98;;;0.73;;
64550;SDS011;50945;44.472;-123.352;2023-04-24T08:59:58;2.47;;;0.75;;
64550;SDS011;50945;44.472;-123.352;2023-04-24T09:02:26;2.20;;;0.60;;
64550;SDS011;50945;44.472;-123.352;2023-04-24T09:04:52;0.73;;;0.73;;
64550;SDS011;50945;44.472;-123.352;2023-04-24T09:07:19;1.55;;;0.60;;
64550;SDS011;50945;44.472;-123.352;2023-04-24T09:09:47;2.67;;;0.60;;
64550;SDS011;50945;44.472;-123.352;2023-04-24T09:12:15;2.20;;;0.38;;
64550;SDS011;50945;44.472;-123.352;2023-04-24T09:14:43;2.50;;;0.50;;
64550;SDS011;50945;44.472;-123.352;2023-04-24T09:17:11;2.42;;;0.75;;
64550;SDS011;50945;44.472;-123.352;2023-04-24T09:19:37;0.50;;;0.50;;
64550;SDS011;50945;44.472;-123.352;2023-04-24T09:22:07;1.20;;;0.38;;
64550;SDS011;50945;44.472;-123.352;2023-04-24T09:24:33;0.85;;;0.60;;
64550;SDS011;50945;44.472;-123.352;2023-04-24T09:27:00;0.60;;;0.40;;
64550;SDS011;50945;44.472;-123.352;2023-04-24T09:29:27;1.92;;;0.52;;
64550;SDS011;50945;44.472;-123.352;2023-04-24T09:31:54;0.50;;;0.50;;
64550;SDS011;50945;44.472;-123.352;2023-04-24T09:34:23;1.85;;;0.80;;
64550;SDS011;50945;44.472;-123.352;2023-04-24T09:36:53;1.27;;;0.50;;
64550;SDS011;50945;44.472;-123.352;2023-04-24T09:39:20;2.50;;;0.80;;
64550;SDS011;50945;44.472;-123.352;2023-04-24T09:41:56;2.60;;;0.85;;
64550;SDS011;50945;44.472;-123.352;2023-04-24T09:44:24;1.05;;;0.60;;
64550;SDS011;50945;44.472;-123.352;2023-04-24T09:46:58;1.83;;;0.60;;
64550;SDS011;50945;44.472;-123.352;2023-04-24T09:49:26;0.75;;;0.70;;
64550;SDS011;50945;44.472;-123.352;2023-04-24T09:52:16;3.85;;;0.88;;
64550;SDS011;50945;44.472;-123.352;2023-04-24T09:54:42;0.77;;;0.40;;
64550;SDS011;50945;44.472;-123.352;2023-04-24T09:57:19;0.70;;;0.30;;
64550;SDS011;50945;44.472;-123.352;2023-04-24T09:59:45;1.80;;;0.60;;
64550;SDS011;50945;44.472;-123.352;2023-04-24T10:02:16;0.73;;;0.43;;
64550;SDS011;50945;44.472;-123.352;2023-04-24T10:05:03;0.47;;;0.47;;
64550;SDS011;50945;44.472;-123.352;2023-04-24T10:07:32;0.95;;;0.40;;
64550;SDS011;50945;44.472;-123.352;2023-04-24T10:09:58;0.50;;;0.50;;
64550;SDS011;50945;44.472;-123.352;2023-04-24T10:12:26;0.50;;;0.50;;
64550;SDS011;50945;44.472;-123.352;2023-04-24T10:14:54;1.50;;;0.47;;
64550;SDS011;50945;44.472;-123.352;2023-04-24T10:17:21;0.57;;;0.45;;
64550;SDS011;50945;44.472;-123.352;2023-04-24T10:19:51;0.85;;;0.43;;
64550;SDS011;50945;44.472;-123.352;2023-04-24T10:24:43;1.60;;;0.73;;
64550;SDS011;50945;44.472;-123.352;2023-04-24T10:27:10;0.45;;;0.45;;
64550;SDS011;50945;44.472;-123.352;2023-04-24T10:29:40;0.47;;;0.35;;
64550;SDS011;50945;44.472;-123.352;2023-04-24T10:32:09;2.70;;;0.88;;
64550;SDS011;50945;44.472;-123.352;2023-04-24T10:34:36;0.52;;;0.50;;
64550;SDS011;50945;44.472;-123.352;2023-04-24T10:37:02;2.20;;;0.65;;
64550;SDS011;50945;44.472;-123.352;2023-04-24T10:39:29;2.05;;;0.75;;
64550;SDS011;50945;44.472;-123.352;2023-04-24T10:41:58;0.30;;;0.30;;
64550;SDS011;50945;44.472;-123.352;2023-04-24T10:44:24;0.68;;;0.20;;
64550;SDS011;50945;44.472;-123.352;2023-04-24T10:46:55;3.10;;;0.80;;
64550;SDS011;50945;44.472;-123.352;2023-04-24T10:49:30;0.75;;;0.40;;
64550;SDS011;50945;44.472;-123.352;2023-04-24T10:52:02;1.08;;;0.30;;
64550;SDS011;50945;44.472;-123.352;2023-04-24T10:54:44;5.75;;;0.57;;
64550;SDS011;50945;44.472;-123.352;2023-04-24T11:02:45;0.20;;;0.20;;
64550;SDS011;50945;44.472;-123.352;2023-04-24T11:05:18;0.40;;;0.40;;
64550;SDS011;50945;44.472;-123.352;2023-04-24T11:10:44;1.45;;;0.40;;
64550;SDS011;50945;44.472;-123.352;2023-04-24T11:13:16;0.38;;;0.28;;
64550;SDS011;50945;44.472;-123.352;2023-04-24T11:15:42;2.95;;;0.55;;
64550;SDS011;50945;44.472;-123.352;2023-04-24T11:18:15;0.43;;;0.43;;
64550;SDS011;50945;44.472;-123.352;2023-04-24T11:20:44;0.55;;;0.30;;
64550;SDS011;50945;44.472;-123.352;2023-04-24T11:23:12;1.95;;;0.45;;
64550;SDS011;50945;44.472;-123.352;2023-04-24T11:25:39;1.17;;;0.43;;
64550;SDS011;50945;44.472;-123.352;2023-04-24T11:28:08;0.38;;;0.10;;
64550;SDS011;50945;44.472;-123.352;2023-04-24T11:30:41;1.15;;;0.40;;
64550;SDS011;50945;44.472;-123.352;2023-04-24T11:33:07;1.35;;;0.47;;
64550;SDS011;50945;44.472;-123.352;2023-04-24T11:35:39;0.40;;;0.40;;
64550;SDS011;50945;44.472;-123.352;2023-04-24T11:38:05;1.52;;;0.43;;
64550;SDS011;50945;44.472;-123.352;2023-04-24T11:40:32;0.50;;;0.25;;
64550;SDS011;50945;44.472;-123.352;2023-04-24T11:42:59;0.30;;;0.30;;
64550;SDS011;50945;44.472;-123.352;2023-04-24T11:47:53;0.10;;;0.10;;
64550;SDS011;50945;44.472;-123.352;2023-04-24T11:50:21;1.70;;;0.20;;
64550;SDS011;50945;44.472;-123.352;2023-04-24T11:52:49;0.35;;;0.35;;
64550;SDS011;50945;44.472;-123.352;2023-04-24T11:57:48;2.65;;;0.30;;
64550;SDS011;50945;44.472;-123.352;2023-04-24T12:00:17;2.05;;;0.20;;
64550;SDS011;50945;44.472;-123.352;2023-04-24T12:02:47;0.88;;;0.30;;
64550;SDS011;50945;44.472;-123.352;2023-04-24T12:05:27;1.25;;;0.13;;
64550;SDS011;50945;44.472;-123.352;2023-04-24T12:07:56;0.17;;;0.17;;
64550;SDS011;50945;44.472;-123.352;2023-04-24T12:10:23;0.10;;;0.10;;
64550;SDS011;50945;44.472;-123.352;2023-04-24T12:12:51;0.60;;;0.20;;
64550;SDS011;50945;44.472;-123.352;2023-04-24T12:15:18;0.28;;;0.25;;
64550;SDS011;50945;44.472;-123.352;2023-04-24T12:17:46;0.10;;;0.10;;
64550;SDS011;50945;44.472;-123.352;2023-04-24T12:20:13;0.17;;;0.17;;
64550;SDS011;50945;44.472;-123.352;2023-04-24T12:22:46;0.68;;;0.35;;
64550;SDS011;50945;44.472;-123.352;2023-04-24T12:25:20;2.30;;;0.20;;
64550;SDS011;50945;44.472;-123.352;2023-04-24T12:27:54;0.10;;;0.10;;
64550;SDS011;50945;44.472;-123.352;2023-04-24T12:33:09;0.10;;;0.10;;
64550;SDS011;50945;44.472;-123.352;2023-04-24T12:35:35;1.25;;;0.30;;
64550;SDS011;50945;44.472;-123.352;2023-04-24T12:38:06;1.08;;;0.20;;
64550;SDS011;50945;44.472;-123.352;2023-04-24T12:40:33;0.00;;;0.00;;
64550;SDS011;50945;44.472;-123.352;2023-04-24T12:42:59;0.10;;;0.00;;
64550;SDS011;50945;44.472;-123.352;2023-04-24T12:45:25;0.28;;;0.28;;
64550;SDS011;50945;44.472;-123.352;2023-04-24T12:47:53;0.10;;;0.10;;
64550;SDS011;50945;44.472;-123.352;2023-04-24T12:50:19;0.60;;;0.17;;
64550;SDS011;50945;44.472;-123.352;2023-04-24T12:52:45;0.43;;;0.28;;
64550;SDS011;50945;44.472;-123.352;2023-04-24T12:55:11;1.17;;;0.20;;
64550;SDS011;50945;44.472;-123.352;2023-04-24T12:57:38;0.30;;;0.13;;
64550;SDS011;50945;44.472;-123.352;2023-04-24T13:00:05;1.08;;;0.15;;
64550;SDS011;50945;44.472;-123.352;2023-04-24T13:02:33;0.80;;;0.15;;
64550;SDS011;50945;44.472;-123.352;2023-04-24T13:05:00;0.10;;;0.10;;
64550;SDS011;50945;44.472;-123.352;2023-04-24T13:07:26;0.90;;;0.15;;
64550;SDS011;50945;44.472;-123.352;2023-04-24T13:09:54;0.10;;;0.10;;
64550;SDS011;50945;44.472;-123.352;2023-04-24T13:12:21;0.73;;;0.10;;
64550;SDS011;50945;44.472;-123.352;2023-04-24T13:14:49;0.15;;;0.15;;
64550;SDS011;50945;44.472;-123.352;2023-04-24T13:17:15;1.85;;;0.17;;
64550;SDS011;50945;44.472;-123.352;2023-04-24T13:19:42;0.22;;;0.20;;
64550;SDS011;50945;44.472;-123.352;2023-04-24T13:22:10;0.52;;;0.20;;
64550;SDS011;50945;44.472;-123.352;2023-04-24T13:24:37;0.00;;;0.00;;
64550;SDS011;50945;44.472;-123.352;2023-04-24T13:27:08;0.10;;;0.10;;
64550;SDS011;50945;44.472;-123.352;2023-04-24T13:29:35;0.88;;;0.10;;
64550;SDS011;50945;44.472;-123.352;2023-04-24T13:32:01;2.45;;;0.20;;
64550;SDS011;50945;44.472;-123.352;2023-04-24T13:34:27;2.72;;;0.20;;
64550;SDS011;50945;44.472;-123.352;2023-04-24T13:36:54;0.15;;;0.15;;
64550;SDS011;50945;44.472;-123.352;2023-04-24T13:39:22;0.22;;;0.00;;
64550;SDS011;50945;44.472;-123.352;2023-04-24T13:44:15;0.85;;;0.30;;
64550;SDS011;50945;44.472;-123.352;2023-04-24T13:46:42;0.70;;;0.38;;
64550;SDS011;50945;44.472;-123.352;2023-04-24T13:49:11;0.00;;;0.00;;
64550;SDS011;50945;44.472;-123.352;2023-04-24T13:51:40;0.10;;;0.10;;
64550;SDS011;50945;44.472;-123.352;2023-04-24T13:56:33;0.20;;;0.20;;
64550;SDS011;50945;44.472;-123.352;2023-04-24T13:58:59;0.35;;;0.10;;
64550;SDS011;50945;44.472;-123.352;2023-04-24T14:01:25;0.73;;;0.38;;
64550;SDS011;50945;44.472;-123.352;2023-04-24T14:03:52;0.30;;;0.30;;
64550;SDS011;50945;44.472;-123.352;2023-04-24T14:06:19;0.10;;;0.10;;
64550;SDS011;50945;44.472;-123.352;2023-04-24T14:08:45;0.30;;;0.30;;
64550;SDS011;50945;44.472;-123.352;2023-04-24T14:11:12;0.32;;;0.32;;
64550;SDS011;50945;44.472;-123.352;2023-04-24T14:13:40;0.50;;;0.50;;
64550;SDS011;50945;44.472;-123.352;2023-04-24T14:16:07;0.17;;;0.17;;
64550;SDS011;50945;44.472;-123.352;2023-04-24T14:18:33;0.50;;;0.20;;
64550;SDS011;50945;44.472;-123.352;2023-04-24T14:21:01;0.10;;;0.10;;
64550;SDS011;50945;44.472;-123.352;2023-04-24T14:23:28;0.20;;;0.20;;
64550;SDS011;50945;44.472;-123.352;2023-04-24T14:25:54;0.85;;;0.40;;
64550;SDS011;50945;44.472;-123.352;2023-04-24T14:28:21;0.47;;;0.47;;
64550;SDS011;50945;44.472;-123.352;2023-04-24T14:30:50;1.85;;;0.22;;
64550;SDS011;50945;44.472;-123.352;2023-04-24T14:33:16;1.10;;;0.22;;
64550;SDS011;50945;44.472;-123.352;2023-04-24T14:35:42;0.10;;;0.10;;
64550;SDS011;50945;44.472;-123.352;2023-04-24T14:38:09;0.20;;;0.10;;
64550;SDS011;50945;44.472;-123.352;2023-04-24T14:40:35;0.30;;;0.10;;
64550;SDS011;50945;44.472;-123.352;2023-04-24T14:43:02;0.00;;;0.00;;
64550;SDS011;50945;44.472;-123.352;2023-04-24T14:45:28;0.40;;;0.20;;